sensor_id;sensor_type;location;lat;lon;timestamp;pressure;altitude;pressure_sealevel;temperature;humidity
21240;BME280;10778;48.962;9.018;2023-02-14T00:02:16;101011.16;;;-1.41;100.00
21240;BME280;10778;48.962;9.018;2023-02-14T00:04:42;100993.97;;;-1.44;100.00
21240;BME280;10778;48.962;9.018;2023-02-14T00:07:10;100998.22;;;-1.40;100.00
21240;BME280;10778;48.962;9.018;2023-02-14T00:09:37;100998.25;;;-1.43;100.00
21240;BME280;10778;48.962;9.018;2023-02-14T00:12:03;100995.72;;;-1.46;100.00
21240;BME280;10778;48.962;9.018;2023-02-14T00:14:29;101000.88;;;-1.46;100.00
21240;BME280;10778;48.962;9.018;2023-02-14T00:17:14;100996.63;;;-1.52;100.00
21240;BME280;10778;48.962;9.018;2023-02-14T00:19:40;101000.16;;;-1.65;100.00
21240;BME280;10778;48.962;9.018;2023-02-14T00:22:06;101001.03;;;-1.66;100.00
21240;BME280;10778;48.962;9.018;2023-02-14T00:24:32;101007.94;;;-1.68;100.00
21240;BME280;10778;48.962;9.018;2023-02-14T00:26:58;101001.09;;;-1.71;100.00
21240;BME280;10778;48.962;9.018;2023-02-14T00:29:27;101005.34;;;-1.67;100.00
21240;BME280;10778;48.962;9.018;2023-02-14T00:31:53;101000.19;;;-1.68;100.00
21240;BME280;10778;48.962;9.018;2023-02-14T00:34:20;101001.09;;;-1.73;100.00
21240;BME280;10778;48.962;9.018;2023-02-14T00:36:46;101004.56;;;-1.80;100.00
21240;BME280;10778;48.962;9.018;2023-02-14T00:39:16;100999.47;;;-1.84;100.00
21240;BME280;10778;48.962;9.018;2023-02-14T00:41:42;101007.28;;;-1.98;100.00
21240;BME280;10778;48.962;9.018;2023-02-14T00:44:09;101001.31;;;-2.02;100.00
21240;BME280;10778;48.962;9.018;2023-02-14T00:46:38;100998.78;;;-2.11;100.00
21240;BME280;10778;48.962;9.018;2023-02-14T00:49:05;100996.25;;;-2.13;100.00
21240;BME280;10778;48.962;9.018;2023-02-14T00:51:31;100997.06;;;-2.12;100.00
21240;BME280;10778;48.962;9.018;2023-02-14T00:53:57;100998.81;;;-2.13;100.00
21240;BME280;10778;48.962;9.018;2023-02-14T00:56:23;100997.94;;;-2.15;100.00
21240;BME280;10778;48.962;9.018;2023-02-14T00:58:49;101002.22;;;-2.14;100.00
21240;BME280;10778;48.962;9.018;2023-02-14T01:01:18;101003.09;;;-2.15;100.00
21240;BME280;10778;48.962;9.018;2023-02-14T01:03:44;100997.13;;;-2.19;100.00
21240;BME280;10778;48.962;9.018;2023-02-14T01:06:11;101001.44;;;-2.21;100.00
21240;BME280;10778;48.962;9.018;2023-02-14T01:08:37;100998.00;;;-2.23;100.00
21240;BME280;10778;48.962;9.018;2023-02-14T01:11:14;101005.75;;;-2.24;100.00
21240;BME280;10778;48.962;9.018;2023-02-14T01:13:41;100996.28;;;-2.24;100.00
21240;BME280;10778;48.962;9.018;2023-02-14T01:16:15;100999.72;;;-2.25;100.00
21240;BME280;10778;48.962;9.018;2023-02-14T01:18:42;101004.94;;;-2.31;100.00
21240;BME280;10778;48.962;9.018;2023-02-14T01:21:13;101007.56;;;-2.39;100.00
21240;BME280;10778;48.962;9.018;2023-02-14T01:23:40;101007.56;;;-2.42;100.00
21240;BME280;10778;48.962;9.018;2023-02-14T01:26:07;101000.69;;;-2.38;100.00
21240;BME280;10778;48.962;9.018;2023-02-14T01:28:34;101009.25;;;-2.38;100.00
21240;BME280;10778;48.962;9.018;2023-02-14T01:31:09;101013.56;;;-2.41;100.00
21240;BME280;10778;48.962;9.018;2023-02-14T01:33:36;101010.16;;;-2.42;100.00
21240;BME280;10778;48.962;9.018;2023-02-14T01:36:02;101005.00;;;-2.47;100.00
21240;BME280;10778;48.962;9.018;2023-02-14T01:38:28;101000.72;;;-2.49;100.00
21240;BME280;10778;48.962;9.018;2023-02-14T01:40:54;101005.03;;;-2.54;100.00
21240;BME280;10778;48.962;9.018;2023-02-14T01:43:21;100999.91;;;-2.58;100.00
21240;BME280;10778;48.962;9.018;2023-02-14T01:45:47;100989.59;;;-2.56;100.00
21240;BME280;10778;48.962;9.018;2023-02-14T01:48:13;100999.91;;;-2.53;100.00
21240;BME280;10778;48.962;9.018;2023-02-14T01:50:43;100997.28;;;-2.50;100.00
21240;BME280;10778;48.962;9.018;2023-02-14T01:53:16;100999.84;;;-2.47;100.00
21240;BME280;10778;48.962;9.018;2023-02-14T01:55:48;100998.16;;;-2.48;100.00
21240;BME280;10778;48.962;9.018;2023-02-14T01:58:20;100999.84;;;-2.47;100.00
21240;BME280;10778;48.962;9.018;2023-02-14T02:00:48;101000.72;;;-2.48;100.00
21240;BME280;10778;48.962;9.018;2023-02-14T02:03:53;101004.13;;;-2.46;100.00
21240;BME280;10778;48.962;9.018;2023-02-14T02:06:37;101002.44;;;-2.48;100.00
21240;BME280;10778;48.962;9.018;2023-02-14T02:09:17;101011.94;;;-2.55;100.00
21240;BME280;10778;48.962;9.018;2023-02-14T02:11:46;101006.78;;;-2.57;100.00
21240;BME280;10778;48.962;9.018;2023-02-14T02:14:17;101014.50;;;-2.57;100.00
21240;BME280;10778;48.962;9.018;2023-02-14T02:33:54;101000.84;;;-2.74;100.00
21240;BME280;10778;48.962;9.018;2023-02-14T02:42:23;100993.13;;;-2.73;100.00
21240;BME280;10778;48.962;9.018;2023-02-14T02:47:46;100987.94;;;-2.69;100.00
21240;BME280;10778;48.962;9.018;2023-02-14T02:50:31;100993.94;;;-2.72;100.00
21240;BME280;10778;48.962;9.018;2023-02-14T02:53:40;100999.06;;;-2.66;100.00
21240;BME280;10778;48.962;9.018;2023-02-14T02:56:15;101002.50;;;-2.67;100.00
21240;BME280;10778;48.962;9.018;2023-02-14T02:59:05;101006.00;;;-2.73;100.00
21240;BME280;10778;48.962;9.018;2023-02-14T03:02:05;100994.84;;;-2.81;100.00
21240;BME280;10778;48.962;9.018;2023-02-14T03:04:35;100999.19;;;-2.94;100.00
21240;BME280;10778;48.962;9.018;2023-02-14T03:10:23;100998.34;;;-3.05;100.00
21240;BME280;10778;48.962;9.018;2023-02-14T03:21:58;101004.38;;;-3.11;100.00
21240;BME280;10778;48.962;9.018;2023-02-14T03:24:54;100994.09;;;-3.08;100.00
21240;BME280;10778;48.962;9.018;2023-02-14T03:27:26;100998.34;;;-3.05;100.00
21240;BME280;10778;48.962;9.018;2023-02-14T03:30:13;100996.63;;;-3.03;100.00
21240;BME280;10778;48.962;9.018;2023-02-14T03:32:46;100995.78;;;-3.01;100.00
21240;BME280;10778;48.962;9.018;2023-02-14T03:35:29;101000.06;;;-3.03;100.00
21240;BME280;10778;48.962;9.018;2023-02-14T03:40:42;101007.81;;;-3.03;100.00
21240;BME280;10778;48.962;9.018;2023-02-14T03:48:44;100997.47;;;-2.95;100.00
21240;BME280;10778;48.962;9.018;2023-02-14T03:51:12;101002.66;;;-2.98;100.00
21240;BME280;10778;48.962;9.018;2023-02-14T03:53:44;100994.91;;;-2.98;100.00
21240;BME280;10778;48.962;9.018;2023-02-14T03:58:43;100994.06;;;-3.05;100.00
21240;BME280;10778;48.962;9.018;2023-02-14T04:01:42;100991.50;;;-3.05;100.00
21240;BME280;10778;48.962;9.018;2023-02-14T04:04:13;100988.06;;;-3.08;100.00
21240;BME280;10778;48.962;9.018;2023-02-14T04:06:40;100975.19;;;-3.05;100.00
21240;BME280;10778;48.962;9.018;2023-02-14T04:09:06;100977.78;;;-3.08;100.00
21240;BME280;10778;48.962;9.018;2023-02-14T04:11:33;100991.53;;;-3.20;100.00
21240;BME280;10778;48.962;9.018;2023-02-14T04:14:01;100993.25;;;-3.24;100.00
21240;BME280;10778;48.962;9.018;2023-02-14T04:16:27;100993.28;;;-3.27;100.00
21240;BME280;10778;48.962;9.018;2023-02-14T04:18:53;100994.97;;;-3.23;100.00
21240;BME280;10778;48.962;9.018;2023-02-14T04:21:38;100989.81;;;-3.18;100.00
21240;BME280;10778;48.962;9.018;2023-02-14T04:24:04;100990.66;;;-3.18;100.00
21240;BME280;10778;48.962;9.018;2023-02-14T04:26:30;100994.09;;;-3.19;100.00
21240;BME280;10778;48.962;9.018;2023-02-14T04:28:56;101000.97;;;-3.21;100.00
21240;BME280;10778;48.962;9.018;2023-02-14T04:31:22;100995.81;;;-3.24;100.00
21240;BME280;10778;48.962;9.018;2023-02-14T04:33:48;100988.09;;;-3.24;100.00
21240;BME280;10778;48.962;9.018;2023-02-14T04:36:16;100994.13;;;-3.25;100.00
21240;BME280;10778;48.962;9.018;2023-02-14T04:38:41;100983.81;;;-3.25;100.00
21240;BME280;10778;48.962;9.018;2023-02-14T04:41:07;100987.25;;;-3.28;100.00
21240;BME280;10778;48.962;9.018;2023-02-14T04:43:33;100985.56;;;-3.30;100.00
21240;BME280;10778;48.962;9.018;2023-02-14T04:45:59;100987.25;;;-3.31;100.00
21240;BME280;10778;48.962;9.018;2023-02-14T04:48:25;100982.97;;;-3.32;100.00
21240;BME280;10778;48.962;9.018;2023-02-14T04:50:53;100976.13;;;-3.33;100.00
21240;BME280;10778;48.962;9.018;2023-02-14T04:53:19;100988.13;;;-3.30;100.00
21240;BME280;10778;48.962;9.018;2023-02-14T04:55:48;100988.97;;;-3.30;100.00
21240;BME280;10778;48.962;9.018;2023-02-14T04:58:14;100987.25;;;-3.28;100.00
21240;BME280;10778;48.962;9.018;2023-02-14T05:00:40;100988.97;;;-3.28;100.00
21240;BME280;10778;48.962;9.018;2023-02-14T05:03:06;100985.53;;;-3.29;100.00
21240;BME280;10778;48.962;9.018;2023-02-14T05:05:32;100980.41;;;-3.30;100.00
21240;BME280;10778;48.962;9.018;2023-02-14T05:07:58;100983.84;;;-3.31;100.00
21240;BME280;10778;48.962;9.018;2023-02-14T05:10:24;100980.41;;;-3.30;100.00
21240;BME280;10778;48.962;9.018;2023-02-14T05:12:50;100982.13;;;-3.34;100.00
21240;BME280;10778;48.962;9.018;2023-02-14T05:15:16;100978.69;;;-3.36;100.00
21240;BME280;10778;48.962;9.018;2023-02-14T05:17:43;100976.97;;;-3.37;100.00
21240;BME280;10778;48.962;9.018;2023-02-14T05:20:09;100981.25;;;-3.37;100.00
21240;BME280;10778;48.962;9.018;2023-02-14T05:22:35;100974.41;;;-3.38;100.00
21240;BME280;10778;48.962;9.018;2023-02-14T05:25:01;100979.56;;;-3.38;100.00
21240;BME280;10778;48.962;9.018;2023-02-14T05:27:27;100977.84;;;-3.38;100.00
21240;BME280;10778;48.962;9.018;2023-02-14T05:29:53;100980.44;;;-3.41;100.00
21240;BME280;10778;48.962;9.018;2023-02-14T05:32:19;100980.44;;;-3.46;100.00
21240;BME280;10778;48.962;9.018;2023-02-14T05:34:45;100976.13;;;-3.45;100.00
21240;BME280;10778;48.962;9.018;2023-02-14T05:37:11;100988.16;;;-3.43;100.00
21240;BME280;10778;48.962;9.018;2023-02-14T05:39:37;100982.97;;;-3.44;100.00
21240;BME280;10778;48.962;9.018;2023-02-14T05:42:03;100983.84;;;-3.40;100.00
21240;BME280;10778;48.962;9.018;2023-02-14T05:44:29;100983.84;;;-3.39;100.00
21240;BME280;10778;48.962;9.018;2023-02-14T05:46:55;100979.53;;;-3.23;100.00
21240;BME280;10778;48.962;9.018;2023-02-14T05:49:21;100975.34;;;-1.80;100.00
21240;BME280;10778;48.962;9.018;2023-02-14T05:51:47;100966.44;;;-1.44;100.00
21240;BME280;10778;48.962;9.018;2023-02-14T05:54:14;100974.66;;;-1.07;100.00
21240;BME280;10778;48.962;9.018;2023-02-14T05:56:40;100977.63;;;-0.66;100.00
21240;BME280;10778;48.962;9.018;2023-02-14T05:59:06;100972.88;;;-0.35;100.00
21240;BME280;10778;48.962;9.018;2023-02-14T06:01:32;100988.13;;;-0.16;100.00
21240;BME280;10778;48.962;9.018;2023-02-14T06:03:58;100988.72;;;-0.56;100.00
21240;BME280;10778;48.962;9.018;2023-02-14T06:06:24;100991.00;;;-1.07;100.00
21240;BME280;10778;48.962;9.018;2023-02-14T06:08:50;100986.59;;;-0.97;100.00
21240;BME280;10778;48.962;9.018;2023-02-14T06:11:16;100992.19;;;-1.39;100.00
21240;BME280;10778;48.962;9.018;2023-02-14T06:13:42;100995.19;;;-1.87;100.00
21240;BME280;10778;48.962;9.018;2023-02-14T06:16:08;100990.25;;;-2.23;100.00
21240;BME280;10778;48.962;9.018;2023-02-14T06:18:34;100992.16;;;-2.54;100.00
21240;BME280;10778;48.962;9.018;2023-02-14T06:21:00;101000.84;;;-2.79;100.00
21240;BME280;10778;48.962;9.018;2023-02-14T06:23:26;101006.91;;;-2.95;100.00
21240;BME280;10778;48.962;9.018;2023-02-14T06:25:52;101011.25;;;-3.08;100.00
21240;BME280;10778;48.962;9.018;2023-02-14T06:28:18;101008.69;;;-3.13;100.00
21240;BME280;10778;48.962;9.018;2023-02-14T06:30:45;101016.41;;;-3.11;100.00
21240;BME280;10778;48.962;9.018;2023-02-14T06:33:11;101010.41;;;-3.18;100.00
21240;BME280;10778;48.962;9.018;2023-02-14T06:35:37;101013.00;;;-3.23;100.00
21240;BME280;10778;48.962;9.018;2023-02-14T06:38:03;101019.00;;;-3.22;100.00
21240;BME280;10778;48.962;9.018;2023-02-14T06:40:29;101017.28;;;-3.30;100.00
21240;BME280;10778;48.962;9.018;2023-02-14T06:42:55;101022.44;;;-3.40;100.00
21240;BME280;10778;48.962;9.018;2023-02-14T06:45:21;101015.59;;;-3.40;100.00
21240;BME280;10778;48.962;9.018;2023-02-14T06:47:47;101016.44;;;-3.38;100.00
21240;BME280;10778;48.962;9.018;2023-02-14T06:50:13;101013.84;;;-3.29;100.00
21240;BME280;10778;48.962;9.018;2023-02-14T06:52:39;101020.72;;;-3.26;100.00
21240;BME280;10778;48.962;9.018;2023-02-14T06:55:07;101013.81;;;-3.18;100.00
21240;BME280;10778;48.962;9.018;2023-02-14T06:57:33;101016.41;;;-3.19;100.00
21240;BME280;10778;48.962;9.018;2023-02-14T06:59:59;101017.28;;;-3.16;100.00
21240;BME280;10778;48.962;9.018;2023-02-14T07:02:25;101013.84;;;-3.15;100.00
21240;BME280;10778;48.962;9.018;2023-02-14T07:04:51;101012.06;;;-2.98;100.00
21240;BME280;10778;48.962;9.018;2023-02-14T07:07:17;101012.94;;;-2.90;100.00
21240;BME280;10778;48.962;9.018;2023-02-14T07:09:43;101011.22;;;-2.93;100.00
21240;BME280;10778;48.962;9.018;2023-02-14T07:12:09;101006.03;;;-2.85;100.00
21240;BME280;10778;48.962;9.018;2023-02-14T07:14:35;101011.13;;;-2.76;100.00
21240;BME280;10778;48.962;9.018;2023-02-14T07:17:01;101010.28;;;-2.75;100.00
21240;BME280;10778;48.962;9.018;2023-02-14T07:19:28;101007.69;;;-2.73;100.00
21240;BME280;10778;48.962;9.018;2023-02-14T07:21:54;101001.69;;;-2.67;100.00
21240;BME280;10778;48.962;9.018;2023-02-14T07:24:20;101002.47;;;-2.54;100.00
21240;BME280;10778;48.962;9.018;2023-02-14T07:26:46;101002.44;;;-2.48;100.00
21240;BME280;10778;48.962;9.018;2023-02-14T07:29:12;100996.41;;;-2.46;100.00
21240;BME280;10778;48.962;9.018;2023-02-14T07:31:38;100992.09;;;-2.39;100.00
21240;BME280;10778;48.962;9.018;2023-02-14T07:34:04;100991.91;;;-2.08;100.00
21240;BME280;10778;48.962;9.018;2023-02-14T07:36:30;100995.28;;;-2.03;100.00
21240;BME280;10778;48.962;9.018;2023-02-14T07:38:56;101003.81;;;-1.93;100.00
21240;BME280;10778;48.962;9.018;2023-02-14T07:41:23;101009.69;;;-1.72;100.00
21240;BME280;10778;48.962;9.018;2023-02-14T07:43:49;100999.66;;;-1.09;100.00
21240;BME280;10778;48.962;9.018;2023-02-14T07:46:15;100990.38;;;-0.54;100.00
21240;BME280;10778;48.962;9.018;2023-02-14T07:48:42;101002.28;;;0.19;97.61
21240;BME280;10778;48.962;9.018;2023-02-14T07:51:08;100994.44;;;1.20;96.11
21240;BME280;10778;48.962;9.018;2023-02-14T07:53:34;100989.34;;;1.95;85.70
21240;BME280;10778;48.962;9.018;2023-02-14T07:56:00;100985.00;;;3.00;80.90
21240;BME280;10778;48.962;9.018;2023-02-14T07:58:26;100974.53;;;3.02;78.91
21240;BME280;10778;48.962;9.018;2023-02-14T08:00:52;100979.13;;;3.82;76.62
21240;BME280;10778;48.962;9.018;2023-02-14T08:03:18;100979.03;;;4.13;75.07
21240;BME280;10778;48.962;9.018;2023-02-14T08:05:44;100979.81;;;4.16;73.75
21240;BME280;10778;48.962;9.018;2023-02-14T08:08:29;100973.84;;;4.39;74.04
21240;BME280;10778;48.962;9.018;2023-02-14T08:10:56;100973.53;;;5.23;70.67
21240;BME280;10778;48.962;9.018;2023-02-14T08:13:22;100965.50;;;5.51;69.03
21240;BME280;10778;48.962;9.018;2023-02-14T08:15:48;100960.47;;;5.69;68.35
21240;BME280;10778;48.962;9.018;2023-02-14T08:18:32;100959.13;;;6.25;66.78
21240;BME280;10778;48.962;9.018;2023-02-14T08:20:59;100959.31;;;7.02;65.13
21240;BME280;10778;48.962;9.018;2023-02-14T08:23:26;100957.69;;;7.19;62.90
21240;BME280;10778;48.962;9.018;2023-02-14T08:25:52;100958.91;;;7.31;64.15
21240;BME280;10778;48.962;9.018;2023-02-14T08:28:18;100956.44;;;7.83;62.22
21240;BME280;10778;48.962;9.018;2023-02-14T08:30:44;100949.88;;;7.92;62.04
21240;BME280;10778;48.962;9.018;2023-02-14T08:33:11;100957.06;;;7.89;61.35
21240;BME280;10778;48.962;9.018;2023-02-14T08:35:37;100948.38;;;8.59;61.05
21240;BME280;10778;48.962;9.018;2023-02-14T08:38:03;100945.75;;;8.59;59.81
21240;BME280;10778;48.962;9.018;2023-02-14T08:40:30;100949.28;;;7.31;64.08
21240;BME280;10778;48.962;9.018;2023-02-14T08:42:56;100953.28;;;7.94;62.91
21240;BME280;10778;48.962;9.018;2023-02-14T08:45:22;100952.25;;;7.23;63.74
21240;BME280;10778;48.962;9.018;2023-02-14T08:47:48;100946.78;;;7.09;65.07
21240;BME280;10778;48.962;9.018;2023-02-14T08:50:15;100950.81;;;6.57;65.32
21240;BME280;10778;48.962;9.018;2023-02-14T08:52:42;100953.66;;;6.09;68.46
21240;BME280;10778;48.962;9.018;2023-02-14T08:55:10;100952.06;;;5.61;73.70
21240;BME280;10778;48.962;9.018;2023-02-14T08:57:36;100956.75;;;5.29;71.02
21240;BME280;10778;48.962;9.018;2023-02-14T09:00:03;100961.06;;;5.30;72.42
21240;BME280;10778;48.962;9.018;2023-02-14T09:02:30;100965.81;;;4.70;75.83
21240;BME280;10778;48.962;9.018;2023-02-14T09:04:56;100967.03;;;4.08;77.35
21240;BME280;10778;48.962;9.018;2023-02-14T09:07:22;100964.28;;;4.12;77.81
21240;BME280;10778;48.962;9.018;2023-02-14T09:09:48;100970.25;;;3.61;79.93
21240;BME280;10778;48.962;9.018;2023-02-14T09:12:14;100967.03;;;3.51;80.84
21240;BME280;10778;48.962;9.018;2023-02-14T09:14:42;100964.72;;;3.98;80.69
21240;BME280;10778;48.962;9.018;2023-02-14T09:17:10;100967.47;;;3.37;80.37
21240;BME280;10778;48.962;9.018;2023-02-14T09:19:36;100961.69;;;3.27;81.23
21240;BME280;10778;48.962;9.018;2023-02-14T09:22:04;100969.94;;;3.41;83.02
21240;BME280;10778;48.962;9.018;2023-02-14T09:24:31;100967.16;;;3.18;83.68
21240;BME280;10778;48.962;9.018;2023-02-14T09:26:58;100966.91;;;3.55;82.03
21240;BME280;10778;48.962;9.018;2023-02-14T09:29:25;100961.47;;;3.92;80.48
21240;BME280;10778;48.962;9.018;2023-02-14T09:31:56;100957.16;;;3.62;80.14
21240;BME280;10778;48.962;9.018;2023-02-14T09:34:23;100949.31;;;3.64;81.49
21240;BME280;10778;48.962;9.018;2023-02-14T09:36:49;100955.44;;;2.71;83.94
21240;BME280;10778;48.962;9.018;2023-02-14T09:39:35;100959.38;;;2.86;85.30
21240;BME280;10778;48.962;9.018;2023-02-14T09:47:57;100936.69;;;6.20;70.98
21240;BME280;10778;48.962;9.018;2023-02-14T09:50:24;100934.63;;;6.06;71.43
21240;BME280;10778;48.962;9.018;2023-02-14T09:52:59;100931.91;;;5.87;71.58
21240;BME280;10778;48.962;9.018;2023-02-14T09:55:33;100930.13;;;5.65;72.02
21240;BME280;10778;48.962;9.018;2023-02-14T09:58:05;100931.84;;;5.44;74.04
21240;BME280;10778;48.962;9.018;2023-02-14T10:03:37;100911.19;;;6.86;68.61
21240;BME280;10778;48.962;9.018;2023-02-14T10:09:13;100904.03;;;9.04;61.32
21240;BME280;10778;48.962;9.018;2023-02-14T10:11:44;100895.72;;;9.44;59.61
21240;BME280;10778;48.962;9.018;2023-02-14T10:14:14;100905.69;;;9.85;58.96
21240;BME280;10778;48.962;9.018;2023-02-14T10:16:46;100895.56;;;9.63;58.68
21240;BME280;10778;48.962;9.018;2023-02-14T10:19:43;100894.88;;;9.59;60.28
21240;BME280;10778;48.962;9.018;2023-02-14T10:22:19;100897.91;;;9.67;60.22
21240;BME280;10778;48.962;9.018;2023-02-14T10:24:58;100893.75;;;9.63;59.45
21240;BME280;10778;48.962;9.018;2023-02-14T10:29:58;100899.72;;;9.19;61.21
21240;BME280;10778;48.962;9.018;2023-02-14T10:32:39;100891.59;;;8.58;62.24
21240;BME280;10778;48.962;9.018;2023-02-14T10:40:39;100890.84;;;8.72;61.79
21240;BME280;10778;48.962;9.018;2023-02-14T10:54:19;100887.72;;;8.30;63.32
21240;BME280;10778;48.962;9.018;2023-02-14T10:57:00;100886.53;;;8.19;65.09
21240;BME280;10778;48.962;9.018;2023-02-14T11:02:12;100868.50;;;8.64;63.01
21240;BME280;10778;48.962;9.018;2023-02-14T11:04:40;100865.69;;;8.34;63.95
21240;BME280;10778;48.962;9.018;2023-02-14T11:07:18;100859.31;;;9.37;62.40
21240;BME280;10778;48.962;9.018;2023-02-14T11:09:44;100871.66;;;8.71;63.29
21240;BME280;10778;48.962;9.018;2023-02-14T11:12:11;100866.09;;;7.73;66.64
21240;BME280;10778;48.962;9.018;2023-02-14T11:14:38;100864.09;;;8.47;64.57
21240;BME280;10778;48.962;9.018;2023-02-14T11:17:30;100853.00;;;8.60;63.46
21240;BME280;10778;48.962;9.018;2023-02-14T11:20:19;100854.56;;;8.29;64.59
21240;BME280;10778;48.962;9.018;2023-02-14T11:22:47;100854.91;;;8.05;65.35
21240;BME280;10778;48.962;9.018;2023-02-14T11:25:26;100842.13;;;8.16;65.92
21240;BME280;10778;48.962;9.018;2023-02-14T11:28:04;100840.72;;;8.09;65.85
21240;BME280;10778;48.962;9.018;2023-02-14T11:30:39;100842.34;;;8.45;65.06
21240;BME280;10778;48.962;9.018;2023-02-14T11:33:09;100839.06;;;8.42;66.14
21240;BME280;10778;48.962;9.018;2023-02-14T11:35:36;100832.09;;;8.07;66.68
21240;BME280;10778;48.962;9.018;2023-02-14T11:38:05;100827.31;;;8.15;66.50
21240;BME280;10778;48.962;9.018;2023-02-14T11:45:40;100820.91;;;8.03;65.92
21240;BME280;10778;48.962;9.018;2023-02-14T11:51:04;100825.78;;;7.76;68.73
21240;BME280;10778;48.962;9.018;2023-02-14T11:56:09;100812.28;;;8.01;68.54
21240;BME280;10778;48.962;9.018;2023-02-14T11:58:44;100812.06;;;8.06;67.75
21240;BME280;10778;48.962;9.018;2023-02-14T12:01:23;100810.91;;;7.94;66.71
21240;BME280;10778;48.962;9.018;2023-02-14T12:03:51;100802.44;;;8.06;68.20
21240;BME280;10778;48.962;9.018;2023-02-14T12:06:30;100808.03;;;8.16;67.23
21240;BME280;10778;48.962;9.018;2023-02-14T12:12:03;100799.38;;;7.63;71.26
21240;BME280;10778;48.962;9.018;2023-02-14T12:14:33;100780.13;;;8.15;68.49
21240;BME280;10778;48.962;9.018;2023-02-14T12:17:17;100784.59;;;7.95;68.35
21240;BME280;10778;48.962;9.018;2023-02-14T12:20:02;100788.81;;;8.16;69.13
21240;BME280;10778;48.962;9.018;2023-02-14T12:22:53;100780.25;;;8.46;68.31
21240;BME280;10778;48.962;9.018;2023-02-14T12:25:24;100778.94;;;8.71;67.14
21240;BME280;10778;48.962;9.018;2023-02-14T12:27:59;100772.19;;;8.66;66.39
21240;BME280;10778;48.962;9.018;2023-02-14T12:30:33;100760.75;;;9.30;65.66
21240;BME280;10778;48.962;9.018;2023-02-14T12:33:00;100764.19;;;9.47;63.79
21240;BME280;10778;48.962;9.018;2023-02-14T12:35:53;100758.53;;;9.69;64.15
21240;BME280;10778;48.962;9.018;2023-02-14T12:38:54;100757.78;;;9.67;63.64
21240;BME280;10778;48.962;9.018;2023-02-14T12:44:14;100744.25;;;9.73;62.52
21240;BME280;10778;48.962;9.018;2023-02-14T12:46:49;100745.34;;;9.54;63.39
21240;BME280;10778;48.962;9.018;2023-02-14T12:55:00;100724.47;;;9.96;64.46
21240;BME280;10778;48.962;9.018;2023-02-14T12:57:53;100733.56;;;10.05;62.32
21240;BME280;10778;48.962;9.018;2023-02-14T13:14:25;100706.69;;;10.44;61.05
21240;BME280;10778;48.962;9.018;2023-02-14T13:22:45;100702.47;;;10.27;62.92
21240;BME280;10778;48.962;9.018;2023-02-14T13:25:30;100690.25;;;10.55;61.76
21240;BME280;10778;48.962;9.018;2023-02-14T13:28:00;100696.69;;;10.63;61.84
21240;BME280;10778;48.962;9.018;2023-02-14T13:30:30;100687.53;;;10.69;61.69
21240;BME280;10778;48.962;9.018;2023-02-14T13:33:00;100690.97;;;11.24;60.08
21240;BME280;10778;48.962;9.018;2023-02-14T13:35:28;100690.66;;;11.29;59.23
21240;BME280;10778;48.962;9.018;2023-02-14T13:37:59;100686.13;;;11.18;59.74
21240;BME280;10778;48.962;9.018;2023-02-14T13:40:27;100692.47;;;11.55;60.69
21240;BME280;10778;48.962;9.018;2023-02-14T13:42:56;100680.25;;;11.53;59.08
21240;BME280;10778;48.962;9.018;2023-02-14T13:53:38;100672.72;;;11.34;58.65
21240;BME280;10778;48.962;9.018;2023-02-14T14:04:00;100669.66;;;11.15;59.20
21240;BME280;10778;48.962;9.018;2023-02-14T14:06:27;100665.09;;;10.63;60.70
21240;BME280;10778;48.962;9.018;2023-02-14T14:08:55;100670.16;;;10.66;61.61
21240;BME280;10778;48.962;9.018;2023-02-14T14:14:01;100650.59;;;11.24;58.74
21240;BME280;10778;48.962;9.018;2023-02-14T14:16:30;100660.19;;;10.72;61.07
21240;BME280;10778;48.962;9.018;2023-02-14T14:22:07;100652.25;;;11.12;59.94
21240;BME280;10778;48.962;9.018;2023-02-14T14:27:12;100641.31;;;11.18;59.34
21240;BME280;10778;48.962;9.018;2023-02-14T14:29:45;100652.81;;;11.04;60.95
21240;BME280;10778;48.962;9.018;2023-02-14T14:34:51;100655.75;;;11.13;60.42
21240;BME280;10778;48.962;9.018;2023-02-14T14:37:22;100653.63;;;11.18;60.48
21240;BME280;10778;48.962;9.018;2023-02-14T14:39:54;100655.94;;;10.97;61.29
21240;BME280;10778;48.962;9.018;2023-02-14T14:42:23;100654.44;;;10.92;61.00
21240;BME280;10778;48.962;9.018;2023-02-14T14:44:58;100651.22;;;11.02;60.90
21240;BME280;10778;48.962;9.018;2023-02-14T14:47:30;100647.53;;;11.04;60.30
21240;BME280;10778;48.962;9.018;2023-02-14T14:50:05;100647.19;;;10.96;61.88
21240;BME280;10778;48.962;9.018;2023-02-14T14:52:34;100648.91;;;10.42;61.57
21240;BME280;10778;48.962;9.018;2023-02-14T14:55:05;100643.50;;;10.58;60.83
21240;BME280;10778;48.962;9.018;2023-02-14T14:57:38;100639.19;;;10.98;60.30
21240;BME280;10778;48.962;9.018;2023-02-14T15:05:42;100641.28;;;10.52;62.98
21240;BME280;10778;48.962;9.018;2023-02-14T15:08:29;100642.03;;;10.67;61.45
21240;BME280;10778;48.962;9.018;2023-02-14T15:11:06;100635.19;;;10.37;62.98
21240;BME280;10778;48.962;9.018;2023-02-14T15:13:43;100633.41;;;10.23;62.98
21240;BME280;10778;48.962;9.018;2023-02-14T15:16:25;100635.53;;;10.03;64.36
21240;BME280;10778;48.962;9.018;2023-02-14T15:18:58;100638.75;;;9.94;64.81
21240;BME280;10778;48.962;9.018;2023-02-14T15:21:26;100631.22;;;9.73;65.38
21240;BME280;10778;48.962;9.018;2023-02-14T15:23:52;100633.41;;;9.52;65.61
21240;BME280;10778;48.962;9.018;2023-02-14T15:26:24;100633.28;;;9.24;66.37
21240;BME280;10778;48.962;9.018;2023-02-14T15:28:57;100636.28;;;8.88;68.36
21240;BME280;10778;48.962;9.018;2023-02-14T15:31:27;100631.84;;;8.74;69.10
21240;BME280;10778;48.962;9.018;2023-02-14T15:33:55;100631.59;;;8.46;70.13
21240;BME280;10778;48.962;9.018;2023-02-14T15:36:23;100632.47;;;8.15;72.14
21240;BME280;10778;48.962;9.018;2023-02-14T15:38:49;100625.94;;;7.90;73.40
21240;BME280;10778;48.962;9.018;2023-02-14T15:41:17;100626.66;;;7.76;74.46